createdAt,value
2023-01-30T00:01:19.941Z,30.13
2023-01-30T00:03:47.723Z,33.67
2023-01-30T00:06:16.302Z,30.27
2023-01-30T00:08:43.906Z,32.03
2023-01-30T00:11:14.524Z,32.93
2023-01-30T00:13:43.809Z,32.27
2023-01-30T00:16:12.521Z,34.57
2023-01-30T00:18:41.962Z,31.63
2023-01-30T00:21:14.304Z,34.57
2023-01-30T00:23:42.627Z,33.07
2023-01-30T00:26:11.962Z,32.27
2023-01-30T00:28:40.184Z,29.20
2023-01-30T00:31:08.643Z,28.87
2023-01-30T00:33:38.875Z,27.40
2023-01-30T00:36:07.327Z,25.87
2023-01-30T00:38:34.731Z,30.80
2023-01-30T00:41:02.715Z,28.90
2023-01-30T00:43:48.863Z,25.70
2023-01-30T00:46:48.580Z,27.47
2023-01-30T00:49:16.438Z,27.73
2023-01-30T00:51:44.490Z,26.00
2023-01-30T00:54:11.975Z,22.47
2023-01-30T00:56:39.595Z,24.53
2023-01-30T00:59:06.891Z,27.13
2023-01-30T01:01:34.640Z,26.27
2023-01-30T01:04:02.051Z,26.63
2023-01-30T01:06:30.455Z,27.63
2023-01-30T01:08:57.836Z,22.53
2023-01-30T01:11:25.665Z,24.00
2023-01-30T01:13:56.534Z,25.40
2023-01-30T01:16:26.825Z,27.50
2023-01-30T01:18:54.929Z,27.90
2023-01-30T01:21:23.423Z,27.73
2023-01-30T01:23:53.684Z,26.17
2023-01-30T01:26:22.040Z,24.90
2023-01-30T01:28:49.521Z,27.47
2023-01-30T01:31:17.863Z,27.97
2023-01-30T01:33:45.350Z,28.07
2023-01-30T01:36:20.058Z,26.27
2023-01-30T01:38:58.305Z,27.77
2023-01-30T01:41:25.912Z,27.20
2023-01-30T01:44:11.325Z,27.30
2023-01-30T01:47:00.148Z,24.60
2023-01-30T01:49:34.022Z,25.37
2023-01-30T01:52:13.351Z,25.80
2023-01-30T01:54:59.797Z,28.47
2023-01-30T01:57:39.003Z,26.93
2023-01-30T02:00:15.543Z,25.03
2023-01-30T02:03:14.946Z,29.40
2023-01-30T02:05:48.644Z,22.80
2023-01-30T02:08:29.389Z,25.90
2023-01-30T02:11:10.202Z,24.17
2023-01-30T02:13:38.629Z,24.00
2023-01-30T02:16:08.379Z,24.63
2023-01-30T02:18:41.853Z,26.40
2023-01-30T02:21:40.336Z,24.37
2023-01-30T02:24:51.859Z,22.57
2023-01-30T02:27:45.374Z,24.43
2023-01-30T02:30:21.661Z,22.93
2023-01-30T02:33:17.922Z,23.23
2023-01-30T02:36:21.433Z,22.93
2023-01-30T02:39:34.928Z,22.00
2023-01-30T02:42:25.647Z,24.83
2023-01-30T02:45:29.383Z,25.50
2023-01-30T02:48:05.438Z,25.63
2023-01-30T02:50:40.950Z,26.37
2023-01-30T02:53:08.981Z,24.17
2023-01-30T02:55:36.516Z,24.53
2023-01-30T02:58:05.057Z,22.20
2023-01-30T03:01:03.929Z,26.53
2023-01-30T03:04:01.661Z,23.50
2023-01-30T03:07:07.781Z,23.03
2023-01-30T03:09:54.502Z,24.70
2023-01-30T03:12:46.494Z,23.83
2023-01-30T03:15:31.199Z,25.07
2023-01-30T03:17:59.750Z,22.47
2023-01-30T03:20:27.365Z,22.97
2023-01-30T03:22:55.670Z,24.37
2023-01-30T03:25:27.064Z,22.07
2023-01-30T03:27:56.787Z,19.60
2023-01-30T03:30:26.716Z,21.23
2023-01-30T03:32:54.258Z,22.53
2023-01-30T03:35:21.939Z,21.47
2023-01-30T03:37:49.809Z,20.27
2023-01-30T03:40:18.019Z,20.93
2023-01-30T03:42:45.909Z,20.27
2023-01-30T03:45:13.576Z,25.23
2023-01-30T03:47:40.885Z,19.90
2023-01-30T03:50:09.701Z,22.00
2023-01-30T03:52:37.946Z,19.63
2023-01-30T03:55:06.172Z,19.07
2023-01-30T03:57:33.525Z,19.00
2023-01-30T04:00:01.217Z,20.23
2023-01-30T04:02:28.568Z,24.17
2023-01-30T04:04:56.347Z,22.43
2023-01-30T04:07:23.926Z,21.27
2023-01-30T04:09:51.559Z,18.50
2023-01-30T04:12:18.984Z,22.57
2023-01-30T04:14:46.645Z,20.03
2023-01-30T04:17:14.047Z,23.30
2023-01-30T04:19:41.660Z,19.87
2023-01-30T04:22:08.942Z,22.10
2023-01-30T04:24:36.465Z,23.30
2023-01-30T04:27:03.922Z,22.20
2023-01-30T04:29:31.691Z,20.97
2023-01-30T04:31:58.995Z,20.33
2023-01-30T04:34:26.537Z,24.23
2023-01-30T04:36:53.866Z,22.40
2023-01-30T04:39:22.191Z,21.93
2023-01-30T04:41:49.618Z,22.50
2023-01-30T04:44:17.286Z,24.07
2023-01-30T04:46:44.702Z,24.50
2023-01-30T04:49:12.787Z,20.33
2023-01-30T04:51:40.086Z,25.23
2023-01-30T04:54:07.801Z,23.20
2023-01-30T04:56:35.147Z,25.37
2023-01-30T04:59:02.859Z,24.57
2023-01-30T05:01:42.295Z,22.03
2023-01-30T05:04:10.283Z,27.30
2023-01-30T05:06:37.728Z,23.10
2023-01-30T05:09:06.109Z,24.63
2023-01-30T05:11:34.078Z,22.33
2023-01-30T05:14:02.219Z,22.40
2023-01-30T05:16:29.908Z,21.80
2023-01-30T05:18:57.695Z,23.13
2023-01-30T05:21:30.765Z,23.20
2023-01-30T05:23:58.576Z,20.57
2023-01-30T05:26:27.111Z,21.33
2023-01-30T05:28:57.219Z,22.47
2023-01-30T05:31:25.631Z,21.70
2023-01-30T05:33:53.616Z,21.40
2023-01-30T05:36:23.566Z,20.60
2023-01-30T05:38:51.325Z,24.37
2023-01-30T05:41:19.043Z,21.37
2023-01-30T05:43:51.102Z,24.30
2023-01-30T05:46:18.885Z,23.37
2023-01-30T05:48:46.811Z,24.13
2023-01-30T05:51:32.273Z,24.90
2023-01-30T05:54:00.443Z,19.67
2023-01-30T05:56:27.829Z,30.87
2023-01-30T05:58:57.005Z,33.40
2023-01-30T06:01:24.648Z,23.50
2023-01-30T06:03:53.253Z,24.40
2023-01-30T06:06:21.838Z,25.93
2023-01-30T06:08:54.566Z,22.73
2023-01-30T06:11:22.978Z,25.50
2023-01-30T06:13:50.741Z,22.97
2023-01-30T06:16:19.537Z,24.60
2023-01-30T06:18:47.578Z,25.57
2023-01-30T06:21:16.441Z,24.80
2023-01-30T06:23:44.330Z,24.67
2023-01-30T06:26:11.757Z,24.67
2023-01-30T06:28:39.375Z,27.63
2023-01-30T06:31:08.332Z,30.17
2023-01-30T06:33:36.424Z,27.20
2023-01-30T06:36:04.072Z,27.90
2023-01-30T06:38:31.681Z,28.57
2023-01-30T06:40:59.211Z,30.03
2023-01-30T06:43:26.780Z,27.27
2023-01-30T06:45:54.095Z,26.77
2023-01-30T06:48:21.718Z,29.27
2023-01-30T06:50:49.051Z,27.83
2023-01-30T06:53:16.696Z,26.33
2023-01-30T06:55:43.999Z,28.17
2023-01-30T06:58:15.020Z,24.60
2023-01-30T07:00:43.375Z,29.43
2023-01-30T07:03:17.189Z,29.77
2023-01-30T07:05:47.572Z,26.70
2023-01-30T07:08:16.655Z,28.27
2023-01-30T07:10:45.497Z,28.07
2023-01-30T07:13:13.768Z,24.50
2023-01-30T07:15:41.114Z,27.60
2023-01-30T07:18:08.899Z,26.70
2023-01-30T07:20:36.259Z,26.43
2023-01-30T07:23:04.324Z,26.73
2023-01-30T07:25:31.673Z,25.17
2023-01-30T07:28:03.309Z,29.53
2023-01-30T07:30:36.140Z,29.03
2023-01-30T07:33:06.629Z,23.30
2023-01-30T07:35:36.890Z,25.53
2023-01-30T07:38:05.756Z,29.60
2023-01-30T07:40:33.519Z,28.17
2023-01-30T07:43:12.117Z,26.80
2023-01-30T07:45:49.067Z,28.43
2023-01-30T07:48:19.644Z,30.83
2023-01-30T07:50:47.452Z,28.23
2023-01-30T07:53:18.910Z,26.17
2023-01-30T07:55:46.448Z,30.43
2023-01-30T07:58:17.992Z,29.57
2023-01-30T08:00:45.771Z,26.47
2023-01-30T08:03:15.902Z,27.03
2023-01-30T08:05:47.054Z,28.10
2023-01-30T08:08:15.156Z,24.37
2023-01-30T08:10:42.925Z,27.20
2023-01-30T08:13:10.821Z,24.80
2023-01-30T08:15:38.242Z,25.27
2023-01-30T08:18:07.489Z,22.30
2023-01-30T08:20:35.053Z,24.33
2023-01-30T08:23:03.350Z,23.80
2023-01-30T08:25:31.158Z,26.37
2023-01-30T08:28:00.633Z,30.23
2023-01-30T08:30:30.683Z,22.03
2023-01-30T08:32:59.193Z,22.03
2023-01-30T08:35:26.991Z,22.13
2023-01-30T08:37:54.837Z,22.43
2023-01-30T08:40:22.171Z,25.33
2023-01-30T08:42:49.797Z,20.10
2023-01-30T08:45:17.172Z,25.07
2023-01-30T08:47:44.736Z,24.80
2023-01-30T08:50:12.366Z,25.83
2023-01-30T08:52:39.989Z,24.80
2023-01-30T08:55:08.042Z,27.53
2023-01-30T08:57:36.603Z,26.47
2023-01-30T09:00:05.804Z,23.63
2023-01-30T09:02:35.263Z,25.20
2023-01-30T09:05:04.163Z,29.87
2023-01-30T09:07:33.628Z,25.03
2023-01-30T09:10:01.929Z,25.90
2023-01-30T09:12:29.513Z,26.83
2023-01-30T09:14:58.588Z,26.03
2023-01-30T09:17:26.567Z,24.03
2023-01-30T09:19:54.200Z,31.70
2023-01-30T09:22:21.912Z,26.97
2023-01-30T09:24:49.251Z,30.33
2023-01-30T09:27:16.804Z,27.53
2023-01-30T09:29:45.410Z,26.40
2023-01-30T09:32:13.027Z,28.23
2023-01-30T09:34:40.528Z,25.87
2023-01-30T09:37:08.396Z,30.10
2023-01-30T09:39:35.748Z,23.90
2023-01-30T09:42:07.152Z,26.90
2023-01-30T09:45:21.584Z,30.13
2023-01-30T09:48:18.473Z,27.80
2023-01-30T09:51:02.607Z,26.23
2023-01-30T09:53:36.304Z,29.60
2023-01-30T09:56:06.387Z,28.07
2023-01-30T09:59:03.347Z,27.97
2023-01-30T10:02:09.315Z,25.03
2023-01-30T10:05:00.112Z,25.93
2023-01-30T10:07:34.098Z,29.23
2023-01-30T10:10:28.623Z,31.87
2023-01-30T10:13:13.673Z,33.70
2023-01-30T10:16:09.832Z,32.70
2023-01-30T10:19:20.561Z,31.83
2023-01-30T10:22:41.229Z,36.97
2023-01-30T10:25:38.779Z,29.03
2023-01-30T10:28:37.606Z,32.17
2023-01-30T10:31:15.734Z,32.57
2023-01-30T10:34:06.580Z,31.30
2023-01-30T10:36:49.740Z,33.57
2023-01-30T10:39:55.540Z,37.23
2023-01-30T10:42:44.009Z,32.70
2023-01-30T10:45:17.535Z,34.87
2023-01-30T10:48:31.372Z,32.10
2023-01-30T10:51:33.649Z,33.07
2023-01-30T10:54:26.928Z,31.13
2023-01-30T10:57:23.923Z,29.33
2023-01-30T11:00:11.295Z,28.00
2023-01-30T11:03:05.035Z,29.60
2023-01-30T11:05:47.531Z,31.47
2023-01-30T11:08:28.918Z,29.83
2023-01-30T11:10:57.962Z,29.77
2023-01-30T11:13:34.498Z,34.30
2023-01-30T11:16:08.049Z,29.83
2023-01-30T11:19:18.698Z,29.07
2023-01-30T11:21:44.557Z,29.67
2023-01-30T11:24:31.009Z,37.17
2023-01-30T11:27:29.441Z,29.77
2023-01-30T11:30:11.165Z,31.07
2023-01-30T11:32:38.671Z,29.53
2023-01-30T11:35:09.342Z,32.73
2023-01-30T11:37:41.359Z,28.67
2023-01-30T11:40:31.277Z,31.13
2023-01-30T11:43:14.260Z,32.00
2023-01-30T11:45:50.514Z,28.93
2023-01-30T11:48:32.955Z,27.67
2023-01-30T11:51:16.956Z,26.73
2023-01-30T11:54:01.225Z,28.57
2023-01-30T11:56:54.528Z,28.00
2023-01-30T11:59:37.157Z,27.73
2023-01-30T12:02:29.968Z,27.93
2023-01-30T12:05:05.463Z,30.33
2023-01-30T12:07:37.611Z,26.80
2023-01-30T12:10:31.652Z,27.73
2023-01-30T12:13:20.155Z,24.63
2023-01-30T12:15:58.265Z,25.30
2023-01-30T12:18:50.941Z,30.13
2023-01-30T12:21:36.329Z,27.40
2023-01-30T12:24:25.909Z,28.90
2023-01-30T12:27:10.039Z,30.93
2023-01-30T12:30:11.320Z,31.50
2023-01-30T12:32:38.975Z,31.20
2023-01-30T12:35:18.562Z,36.70
2023-01-30T12:38:05.597Z,33.60
2023-01-30T12:41:16.572Z,34.77
2023-01-30T12:48:22.862Z,34.27
2023-01-30T12:51:21.248Z,36.13
2023-01-30T12:54:21.307Z,39.13
2023-01-30T12:57:10.413Z,33.33
2023-01-30T12:59:47.071Z,34.03
2023-01-30T13:03:12.917Z,34.43
2023-01-30T13:05:54.447Z,32.00
2023-01-30T13:08:43.047Z,35.13
2023-01-30T13:11:42.046Z,38.53
2023-01-30T13:14:44.734Z,36.30
2023-01-30T13:17:49.788Z,33.37
2023-01-30T13:20:53.220Z,37.07
2023-01-30T13:23:54.433Z,30.10
2023-01-30T13:26:31.369Z,34.00
2023-01-30T13:29:29.782Z,34.57
2023-01-30T13:32:02.629Z,33.87
2023-01-30T13:34:45.762Z,33.20
2023-01-30T13:37:20.764Z,31.30
2023-01-30T13:40:13.643Z,32.20
2023-01-30T13:43:02.195Z,32.70
2023-01-30T13:45:36.778Z,30.97
2023-01-30T13:48:30.922Z,30.87
2023-01-30T13:51:52.994Z,33.37
2023-01-30T13:54:50.680Z,29.97
2023-01-30T13:57:40.307Z,28.53
2023-01-30T14:00:26.896Z,28.90
2023-01-30T14:03:06.729Z,23.53
2023-01-30T14:05:52.795Z,22.60
2023-01-30T14:08:38.171Z,24.70
2023-01-30T14:11:37.303Z,23.60
2023-01-30T14:14:32.363Z,23.73
2023-01-30T14:17:16.721Z,28.20
2023-01-30T14:20:00.828Z,23.77
2023-01-30T14:22:54.593Z,29.33
2023-01-30T14:25:32.945Z,28.30
2023-01-30T14:28:00.419Z,28.57
2023-01-30T14:30:56.069Z,28.10
2023-01-30T14:33:23.787Z,26.33
2023-01-30T14:36:03.268Z,29.43
2023-01-30T14:38:36.088Z,33.03
2023-01-30T14:41:03.377Z,29.87
2023-01-30T14:43:43.035Z,32.33
2023-01-30T14:46:19.643Z,28.43
2023-01-30T14:49:19.530Z,33.90
2023-01-30T14:51:49.806Z,31.00
2023-01-30T14:54:17.319Z,33.17
2023-01-30T14:56:57.205Z,33.97
2023-01-30T14:59:54.082Z,35.40
2023-01-30T15:02:49.491Z,34.20
2023-01-30T15:05:30.795Z,33.47
2023-01-30T15:08:12.960Z,36.83
2023-01-30T15:10:49.418Z,34.97
2023-01-30T15:13:58.964Z,33.93
2023-01-30T15:17:03.051Z,31.43
2023-01-30T15:20:02.698Z,32.60
2023-01-30T15:23:18.569Z,36.60
2023-01-30T15:25:57.346Z,35.97
2023-01-30T15:29:06.509Z,37.00
2023-01-30T15:31:33.982Z,35.17
2023-01-30T15:34:01.717Z,35.63
2023-01-30T15:36:35.981Z,32.87
2023-01-30T15:39:40.358Z,30.93
2023-01-30T15:42:15.314Z,34.23
2023-01-30T15:45:33.331Z,32.67
2023-01-30T15:48:31.556Z,35.17
2023-01-30T15:51:01.461Z,38.47
2023-01-30T15:53:41.363Z,41.33
2023-01-30T15:56:17.781Z,36.50
2023-01-30T15:58:45.995Z,41.33
2023-01-30T16:01:21.365Z,38.67
2023-01-30T16:03:50.281Z,42.77
2023-01-30T16:06:23.853Z,49.07
2023-01-30T16:09:00.807Z,45.00
2023-01-30T16:11:42.772Z,46.13
2023-01-30T16:14:22.208Z,47.20
2023-01-30T16:17:10.503Z,45.87
2023-01-30T16:19:39.109Z,43.80
2023-01-30T16:22:19.152Z,41.03
2023-01-30T16:24:53.226Z,36.60
2023-01-30T16:27:32.253Z,43.77
2023-01-30T16:30:08.686Z,42.63
2023-01-30T16:32:37.521Z,39.50
2023-01-30T16:35:27.099Z,39.67
2023-01-30T16:37:59.152Z,43.57
2023-01-30T16:40:45.553Z,37.23
2023-01-30T16:43:25.003Z,40.97
2023-01-30T16:45:55.245Z,38.60
2023-01-30T16:48:43.974Z,37.57
2023-01-30T16:51:21.764Z,43.97
2023-01-30T16:54:04.860Z,39.10
2023-01-30T16:56:34.975Z,38.63
2023-01-30T16:59:03.656Z,32.43
2023-01-30T17:01:41.466Z,36.07
2023-01-30T17:04:22.958Z,34.03
2023-01-30T17:07:01.699Z,33.77
2023-01-30T17:09:42.731Z,40.07
2023-01-30T17:12:31.240Z,41.47
2023-01-30T17:15:13.893Z,34.43
2023-01-30T17:17:42.575Z,34.07
2023-01-30T17:20:13.180Z,38.93
2023-01-30T17:22:44.604Z,34.20
2023-01-30T17:25:33.005Z,35.87
2023-01-30T17:28:00.396Z,35.13
2023-01-30T17:30:28.021Z,35.03
2023-01-30T17:32:55.329Z,33.97
2023-01-30T17:35:23.048Z,37.83
2023-01-30T17:37:59.750Z,39.07
2023-01-30T17:40:36.872Z,36.10
2023-01-30T17:43:05.580Z,39.60
2023-01-30T17:45:33.747Z,43.53
2023-01-30T17:48:01.803Z,34.87
2023-01-30T17:50:29.505Z,37.40
2023-01-30T17:52:56.883Z,39.13
2023-01-30T17:55:25.123Z,39.07
2023-01-30T17:57:53.157Z,35.97
2023-01-30T18:00:22.902Z,40.90
2023-01-30T18:02:50.447Z,41.60
2023-01-30T18:05:18.231Z,42.37
2023-01-30T18:07:45.708Z,42.07
2023-01-30T18:10:20.460Z,36.77
2023-01-30T18:12:48.013Z,42.50
2023-01-30T18:15:16.658Z,38.53
2023-01-30T18:17:48.540Z,41.67
2023-01-30T18:20:20.275Z,34.70
2023-01-30T18:22:48.091Z,37.77
2023-01-30T18:25:17.649Z,35.00
2023-01-30T18:27:47.410Z,30.63
2023-01-30T18:30:17.686Z,33.90
2023-01-30T18:32:53.562Z,30.80
2023-01-30T18:35:23.200Z,30.17
2023-01-30T18:37:51.109Z,29.23
2023-01-30T18:40:20.876Z,29.57
2023-01-30T18:42:48.706Z,37.27
2023-01-30T18:45:16.582Z,32.53
2023-01-30T18:47:44.008Z,40.30
2023-01-30T18:50:12.277Z,35.87
2023-01-30T18:52:39.697Z,33.50
2023-01-30T18:55:07.903Z,33.97
2023-01-30T18:57:35.230Z,34.77
2023-01-30T19:00:03.348Z,34.87
2023-01-30T19:02:30.910Z,32.43
2023-01-30T19:04:58.572Z,33.53
2023-01-30T19:07:25.881Z,37.53
2023-01-30T19:09:53.666Z,33.20
2023-01-30T19:12:41.382Z,35.97
2023-01-30T19:15:10.249Z,36.40
2023-01-30T19:17:37.543Z,33.90
2023-01-30T19:20:10.863Z,34.43
2023-01-30T19:22:39.270Z,30.57
2023-01-30T19:25:07.842Z,30.73
2023-01-30T19:27:38.508Z,32.17
2023-01-30T19:30:07.424Z,30.37
2023-01-30T19:32:35.039Z,32.40
2023-01-30T19:35:02.965Z,36.93
2023-01-30T19:37:30.407Z,29.47
2023-01-30T19:39:58.039Z,31.33
2023-01-30T19:42:25.444Z,35.07
2023-01-30T19:44:53.255Z,32.03
2023-01-30T19:47:22.130Z,32.40
2023-01-30T19:49:49.914Z,32.00
2023-01-30T19:52:17.190Z,33.37
2023-01-30T19:54:47.039Z,33.70
2023-01-30T19:57:14.406Z,36.63
2023-01-30T19:59:42.839Z,34.23
2023-01-30T20:02:13.305Z,32.70
2023-01-30T20:04:41.058Z,32.83
2023-01-30T20:07:08.417Z,33.77
2023-01-30T20:09:36.139Z,32.27
2023-01-30T20:12:03.840Z,27.87
2023-01-30T20:14:31.549Z,22.57
2023-01-30T20:16:58.895Z,24.63
2023-01-30T20:19:27.289Z,25.70
2023-01-30T20:21:55.184Z,22.30
2023-01-30T20:24:23.002Z,14.03
2023-01-30T20:26:50.513Z,18.20
2023-01-30T20:29:18.256Z,20.37
2023-01-30T20:31:45.689Z,15.83
2023-01-30T20:34:15.265Z,14.77
2023-01-30T20:36:42.805Z,15.10
2023-01-30T20:39:10.639Z,16.97
2023-01-30T20:41:38.766Z,14.00
2023-01-30T20:44:10.531Z,15.03
2023-01-30T20:46:44.195Z,13.83
2023-01-30T20:49:29.929Z,20.63
2023-01-30T20:51:57.195Z,14.13
2023-01-30T20:54:24.778Z,13.67
2023-01-30T20:56:53.990Z,14.43
2023-01-30T20:59:24.490Z,14.47
2023-01-30T21:01:53.275Z,13.60
2023-01-30T21:04:24.574Z,10.87
2023-01-30T21:06:52.240Z,11.97
2023-01-30T21:09:23.146Z,16.00
2023-01-30T21:11:53.113Z,12.97
2023-01-30T21:14:21.584Z,15.03
2023-01-30T21:16:49.448Z,13.73
2023-01-30T21:19:18.239Z,16.10
2023-01-30T21:21:53.498Z,15.67
2023-01-30T21:24:28.567Z,15.80
2023-01-30T21:26:56.967Z,13.97
2023-01-30T21:29:28.417Z,19.90
2023-01-30T21:31:57.818Z,13.73
2023-01-30T21:34:25.864Z,15.07
2023-01-30T21:37:11.798Z,14.07
2023-01-30T21:39:58.206Z,16.27
2023-01-30T21:42:44.055Z,15.63
2023-01-30T21:45:11.712Z,16.77
2023-01-30T21:47:39.028Z,18.73
2023-01-30T21:50:07.588Z,19.10
2023-01-30T21:52:35.142Z,16.50
2023-01-30T21:55:02.904Z,17.83
2023-01-30T21:57:30.338Z,13.57
2023-01-30T21:59:58.066Z,14.80
2023-01-30T22:02:25.516Z,14.23
2023-01-30T22:04:53.225Z,14.60
2023-01-30T22:07:20.596Z,16.53
2023-01-30T22:09:48.993Z,18.83
2023-01-30T22:12:16.495Z,23.07
2023-01-30T22:14:44.074Z,21.10
2023-01-30T22:17:11.468Z,16.90
2023-01-30T22:19:39.703Z,12.57
2023-01-30T22:22:07.143Z,15.93
2023-01-30T22:24:34.817Z,13.83
2023-01-30T22:27:02.203Z,13.73
2023-01-30T22:29:29.903Z,14.43
2023-01-30T22:31:57.334Z,15.17
2023-01-30T22:34:25.053Z,9.90
2023-01-30T22:36:53.059Z,13.00
2023-01-30T22:39:20.765Z,12.47
2023-01-30T22:41:48.142Z,15.20
2023-01-30T22:44:15.737Z,10.70
2023-01-30T22:46:43.061Z,19.43
2023-01-30T22:49:10.959Z,17.77
2023-01-30T22:51:41.211Z,20.13
2023-01-30T22:54:16.073Z,16.10
2023-01-30T22:56:47.630Z,20.50
2023-01-30T22:59:15.343Z,18.50
2023-01-30T23:01:46.864Z,18.10
2023-01-30T23:04:19.278Z,18.90
2023-01-30T23:06:47.753Z,21.20
2023-01-30T23:09:20.040Z,18.10
2023-01-30T23:12:10.807Z,20.53
2023-01-30T23:14:39.292Z,29.17
2023-01-30T23:17:26.782Z,24.40
2023-01-30T23:19:57.767Z,23.63
2023-01-30T23:22:25.223Z,26.27
2023-01-30T23:24:52.828Z,21.77
2023-01-30T23:27:21.183Z,14.33
2023-01-30T23:29:48.925Z,15.47
2023-01-30T23:32:19.942Z,16.40
2023-01-30T23:34:48.273Z,18.07
2023-01-30T23:37:16.650Z,21.40
2023-01-30T23:39:44.985Z,16.87
2023-01-30T23:42:12.244Z,15.97
2023-01-30T23:44:40.128Z,18.27
2023-01-30T23:47:07.604Z,15.50
2023-01-30T23:49:35.400Z,16.77
2023-01-30T23:52:02.709Z,16.47
2023-01-30T23:54:30.337Z,16.50
2023-01-30T23:56:57.664Z,16.87
2023-01-30T23:59:25.235Z,16.13
